createdAt,value
2017-11-07T00:00:14.404Z,92.71
2017-11-07T00:00:40.528Z,92.33
2017-11-07T00:01:06.645Z,92.71
2017-11-07T00:01:32.791Z,93.27
2017-11-07T00:01:58.907Z,92.33
2017-11-07T00:02:25.019Z,93.08
2017-11-07T00:02:51.146Z,92.99
2017-11-07T00:03:17.275Z,92.9
2017-11-07T00:03:43.418Z,93.18
2017-11-07T00:04:09.539Z,92.61
2017-11-07T00:04:35.657Z,93.27
2017-11-07T00:05:01.778Z,93.18
2017-11-07T00:05:27.921Z,93.37
2017-11-07T00:05:54.041Z,93.18
2017-11-07T00:06:20.158Z,93.27
2017-11-07T00:06:46.282Z,92.71
2017-11-07T00:07:12.397Z,93.27
2017-11-07T00:07:38.525Z,93.18
2017-11-07T00:08:04.647Z,92.33
2017-11-07T00:08:30.761Z,92.8
2017-11-07T00:08:56.904Z,92.33
2017-11-07T00:09:23.027Z,92.52
2017-11-07T00:09:49.145Z,92.61
2017-11-07T00:10:15.260Z,92.9
2017-11-07T00:10:41.388Z,92.23
2017-11-07T00:11:07.516Z,91.99
2017-11-07T00:11:33.628Z,91.75
2017-11-07T00:11:59.740Z,91.85
2017-11-07T00:12:25.855Z,91.75
2017-11-07T00:12:51.973Z,91.75
2017-11-07T00:13:18.095Z,91.66
2017-11-07T00:13:44.217Z,92.23
2017-11-07T00:14:10.330Z,91.94
2017-11-07T00:14:36.457Z,92.52
2017-11-07T00:15:02.574Z,92.33
2017-11-07T00:15:28.717Z,92.33
2017-11-07T00:15:54.834Z,92.23
2017-11-07T00:16:20.951Z,92.42
2017-11-07T00:16:47.076Z,92.23
2017-11-07T00:17:13.193Z,91.94
2017-11-07T00:17:39.312Z,92.23
2017-11-07T00:18:05.429Z,91.52
2017-11-07T00:18:31.556Z,91.8
2017-11-07T00:18:57.678Z,91.61
2017-11-07T00:19:23.795Z,91.61
2017-11-07T00:19:49.916Z,91.61
2017-11-07T00:20:16.032Z,91.42
2017-11-07T00:20:42.157Z,91.33
2017-11-07T00:21:08.274Z,91.14
2017-11-07T00:21:34.392Z,91.04
2017-11-07T00:22:00.511Z,90.95
2017-11-07T00:22:26.638Z,90.38
2017-11-07T00:22:52.752Z,90.85
2017-11-07T00:23:18.890Z,89.9
2017-11-07T00:23:45.014Z,90.09
2017-11-07T00:24:11.166Z,90.09
2017-11-07T00:24:37.297Z,90.09
2017-11-07T00:25:03.409Z,89.9
2017-11-07T00:25:29.532Z,89.72
2017-11-07T00:25:55.657Z,89.43
2017-11-07T00:26:21.765Z,89.43
2017-11-07T00:26:47.883Z,89.9
2017-11-07T00:27:14.015Z,89.62
2017-11-07T00:27:40.131Z,89.72
2017-11-07T00:28:06.257Z,89.05
2017-11-07T00:28:32.378Z,89.14
2017-11-07T00:28:58.493Z,89.33
2017-11-07T00:29:24.613Z,88.76
2017-11-07T00:29:50.737Z,88.67
2017-11-07T00:30:16.877Z,88.76
2017-11-07T00:30:42.995Z,88.76
2017-11-07T00:31:09.120Z,88.67
2017-11-07T00:31:35.234Z,89.14
2017-11-07T00:32:01.353Z,89.62
2017-11-07T00:32:27.480Z,89.53
2017-11-07T00:32:53.593Z,89.72
2017-11-07T00:33:19.713Z,89.62
2017-11-07T00:33:45.836Z,89.9
2017-11-07T00:34:11.950Z,90.38
2017-11-07T00:34:38.074Z,90.24
2017-11-07T00:35:04.199Z,90.09
2017-11-07T00:35:30.314Z,90.09
2017-11-07T00:35:56.438Z,89.9
2017-11-07T00:36:22.562Z,90.19
2017-11-07T00:36:48.677Z,90.19
2017-11-07T00:37:14.797Z,90.38
2017-11-07T00:37:40.942Z,90.38
2017-11-07T00:38:07.063Z,89.81
2017-11-07T00:38:33.179Z,89.9
2017-11-07T00:38:59.302Z,89.72
2017-11-07T00:39:25.441Z,89.43
2017-11-07T00:39:51.565Z,89.72
2017-11-07T00:40:17.685Z,89.9
2017-11-07T00:40:43.801Z,89.72
2017-11-07T00:41:09.924Z,89.72
2017-11-07T00:41:36.041Z,89.24
2017-11-07T00:42:02.166Z,89.9
2017-11-07T00:42:28.280Z,89.53
2017-11-07T00:42:54.413Z,89.53
2017-11-07T00:43:20.529Z,89.67
2017-11-07T00:43:46.648Z,90.19
2017-11-07T00:44:12.763Z,90.38
2017-11-07T00:44:38.887Z,90.28
2017-11-07T00:45:05.001Z,90.05
2017-11-07T00:45:31.127Z,89.9
2017-11-07T00:45:57.247Z,89.9
2017-11-07T00:46:23.365Z,90.28
2017-11-07T00:46:49.481Z,90.47
2017-11-07T00:47:15.596Z,90
2017-11-07T00:47:41.721Z,90
2017-11-07T00:48:07.838Z,89.9
2017-11-07T00:48:33.965Z,89.72
2017-11-07T00:49:00.087Z,89.9
2017-11-07T00:49:26.208Z,89.53
2017-11-07T00:49:52.327Z,89.33
2017-11-07T00:50:18.450Z,89.53
2017-11-07T00:50:44.562Z,89.43
2017-11-07T00:51:10.689Z,89.14
2017-11-07T00:51:36.808Z,89.05
2017-11-07T00:52:02.928Z,89.14
2017-11-07T00:52:29.047Z,89.14
2017-11-07T00:52:55.171Z,89.14
2017-11-07T00:53:21.286Z,88.67
2017-11-07T00:53:47.407Z,88.86
2017-11-07T00:54:13.532Z,88.67
2017-11-07T00:54:39.653Z,88.86
2017-11-07T00:55:05.779Z,88.67
2017-11-07T00:55:31.897Z,88.67
2017-11-07T00:55:58.010Z,88.67
2017-11-07T00:56:24.131Z,88.86
2017-11-07T00:56:50.245Z,88.57
2017-11-07T00:57:16.363Z,88.57
2017-11-07T00:57:42.477Z,88.76
2017-11-07T00:58:08.597Z,88.57
2017-11-07T00:58:34.714Z,88.57
2017-11-07T00:59:00.838Z,89.24
2017-11-07T00:59:26.957Z,89.33
2017-11-07T00:59:53.081Z,89.33
2017-11-07T01:00:19.201Z,89
2017-11-07T01:00:45.326Z,89.48
2017-11-07T01:01:11.447Z,89.95
2017-11-07T01:01:37.568Z,89.58
2017-11-07T01:02:03.685Z,89.48
2017-11-07T01:02:29.798Z,89.48
2017-11-07T01:02:55.924Z,89.95
2017-11-07T01:03:22.040Z,90.43
2017-11-07T01:03:48.164Z,90.52
2017-11-07T01:04:14.294Z,90.62
2017-11-07T01:04:40.415Z,90.52
2017-11-07T01:05:06.545Z,90.71
2017-11-07T01:05:32.663Z,90.52
2017-11-07T01:05:58.776Z,90.52
2017-11-07T01:06:24.923Z,90.62
2017-11-07T01:06:51.038Z,91
2017-11-07T01:07:17.160Z,90.9
2017-11-07T01:07:43.282Z,91.19
2017-11-07T01:08:09.398Z,90.81
2017-11-07T01:08:35.524Z,91.19
2017-11-07T01:09:01.638Z,91.94
2017-11-07T01:09:27.756Z,91.38
2017-11-07T01:09:53.880Z,92.04
2017-11-07T01:10:20.001Z,91
2017-11-07T01:10:46.119Z,91
2017-11-07T01:11:12.244Z,91
2017-11-07T01:11:38.361Z,91.28
2017-11-07T01:12:04.488Z,91.28
2017-11-07T01:12:30.601Z,90.81
2017-11-07T01:12:56.715Z,91.28
2017-11-07T01:13:22.840Z,91.28
2017-11-07T01:13:48.958Z,90.9
2017-11-07T01:14:15.076Z,91.38
2017-11-07T01:14:41.191Z,91.09
2017-11-07T01:15:07.316Z,91.28
2017-11-07T01:15:33.438Z,91.94
2017-11-07T01:15:59.553Z,91.75
2017-11-07T01:16:25.675Z,91.75
2017-11-07T01:16:51.796Z,91.85
2017-11-07T01:17:17.907Z,91.66
2017-11-07T01:17:44.033Z,91.66
2017-11-07T01:18:10.165Z,91.75
2017-11-07T01:18:36.271Z,91.85
2017-11-07T01:19:02.402Z,92.04
2017-11-07T01:19:28.508Z,91.47
2017-11-07T01:19:54.625Z,91.19
2017-11-07T01:20:20.752Z,91.19
2017-11-07T01:20:46.867Z,91
2017-11-07T01:21:12.989Z,91.38
2017-11-07T01:21:39.110Z,91.38
2017-11-07T01:22:05.226Z,91.19
2017-11-07T01:22:31.342Z,91.19
2017-11-07T01:22:57.471Z,91.19
2017-11-07T01:23:23.584Z,91.19
2017-11-07T01:23:49.702Z,90.9
2017-11-07T01:24:15.819Z,91.19
2017-11-07T01:24:41.941Z,91
2017-11-07T01:25:08.062Z,91
2017-11-07T01:25:34.180Z,90.52
2017-11-07T01:26:00.305Z,90.33
2017-11-07T01:26:26.425Z,89.76
2017-11-07T01:26:52.539Z,90.33
2017-11-07T01:27:18.665Z,89.86
2017-11-07T01:27:44.809Z,89.67
2017-11-07T01:28:10.924Z,89.58
2017-11-07T01:28:37.047Z,89.48
2017-11-07T01:29:03.158Z,89.67
2017-11-07T01:29:29.279Z,89.2
2017-11-07T01:29:55.418Z,89.48
2017-11-07T01:30:21.537Z,89.29
2017-11-07T01:30:47.684Z,89.1
2017-11-07T01:31:13.797Z,89.58
2017-11-07T01:31:39.920Z,89.39
2017-11-07T01:32:06.041Z,89.39
2017-11-07T01:32:32.181Z,89.76
2017-11-07T01:32:58.300Z,89.67
2017-11-07T01:33:24.416Z,89.58
2017-11-07T01:33:50.531Z,89.67
2017-11-07T01:34:16.674Z,89.39
2017-11-07T01:34:42.790Z,89.48
2017-11-07T01:35:08.934Z,89.48
2017-11-07T01:35:35.056Z,89.48
2017-11-07T01:36:01.169Z,89.67
2017-11-07T01:36:27.295Z,89.48
2017-11-07T01:36:53.410Z,89.2
2017-11-07T01:37:19.533Z,89
2017-11-07T01:37:45.649Z,89.2
2017-11-07T01:38:11.765Z,89.2
2017-11-07T01:38:37.888Z,88.62
2017-11-07T01:39:04.006Z,88.62
2017-11-07T01:39:30.132Z,88.62
2017-11-07T01:39:56.269Z,89.2
2017-11-07T01:40:22.394Z,89.1
2017-11-07T01:40:48.511Z,89.29
2017-11-07T01:41:14.633Z,89
2017-11-07T01:41:40.755Z,89.29
2017-11-07T01:42:06.870Z,89.58
2017-11-07T01:42:32.981Z,89.39
2017-11-07T01:42:59.103Z,89.67
2017-11-07T01:43:25.220Z,89.67
2017-11-07T01:43:51.350Z,89.86
2017-11-07T01:44:17.470Z,89.29
2017-11-07T01:44:43.605Z,89.29
2017-11-07T01:45:09.733Z,89.95
2017-11-07T01:45:35.847Z,89.1
2017-11-07T01:46:01.971Z,89.58
2017-11-07T01:46:28.094Z,89.2
2017-11-07T01:46:54.223Z,89.2
2017-11-07T01:47:20.350Z,88.43
2017-11-07T01:47:46.464Z,89.2
2017-11-07T01:48:12.582Z,88.91
2017-11-07T01:48:38.696Z,89.29
2017-11-07T01:49:04.816Z,88.91
2017-11-07T01:49:30.950Z,89
2017-11-07T01:49:57.065Z,89.58
2017-11-07T01:50:23.190Z,89.67
2017-11-07T01:50:49.330Z,89.29
2017-11-07T01:51:15.443Z,89.76
2017-11-07T01:51:41.585Z,89.29
2017-11-07T01:52:07.686Z,89.48
2017-11-07T01:52:33.829Z,89.67
2017-11-07T01:52:59.949Z,89.39
2017-11-07T01:53:26.067Z,89.2
2017-11-07T01:53:52.189Z,89.67
2017-11-07T01:54:18.302Z,89.2
2017-11-07T01:54:44.432Z,89.76
2017-11-07T01:55:10.544Z,88.81
2017-11-07T01:55:36.666Z,89.48
2017-11-07T01:56:02.786Z,89.1
2017-11-07T01:56:28.906Z,88.72
2017-11-07T01:56:55.025Z,88.81
2017-11-07T01:57:21.146Z,88.62
2017-11-07T01:57:47.262Z,88.43
2017-11-07T01:58:13.379Z,88.06
2017-11-07T01:58:45.763Z,88.06
2017-11-07T01:59:11.883Z,88.15
2017-11-07T01:59:38.005Z,88.06
2017-11-07T02:00:04.127Z,88.34
2017-11-07T02:00:30.239Z,88.34
2017-11-07T02:00:56.361Z,88.34
2017-11-07T02:01:22.475Z,88.43
2017-11-07T02:01:48.598Z,88.15
2017-11-07T02:02:14.723Z,88.06
2017-11-07T02:02:40.837Z,88.15
2017-11-07T02:03:06.961Z,88.43
2017-11-07T02:03:33.084Z,88.72
2017-11-07T02:03:59.197Z,88.53
2017-11-07T02:04:25.316Z,88.72
2017-11-07T02:04:51.440Z,88.72
2017-11-07T02:05:17.554Z,88.62
2017-11-07T02:05:43.677Z,88.72
2017-11-07T02:06:09.799Z,88.72
2017-11-07T02:06:35.936Z,88.81
2017-11-07T02:07:02.053Z,89
2017-11-07T02:07:28.176Z,89.95
2017-11-07T02:07:54.297Z,88.91
2017-11-07T02:08:20.414Z,89
2017-11-07T02:08:46.538Z,89.29
2017-11-07T02:09:12.653Z,89.29
2017-11-07T02:09:38.779Z,89.29
2017-11-07T02:10:04.894Z,89
2017-11-07T02:10:31.020Z,89.48
2017-11-07T02:10:57.132Z,89.67
2017-11-07T02:11:23.250Z,89.95
2017-11-07T02:11:49.374Z,89.67
2017-11-07T02:12:15.500Z,89.48
2017-11-07T02:12:41.617Z,89.58
2017-11-07T02:13:07.732Z,90.05
2017-11-07T02:13:33.854Z,90.43
2017-11-07T02:13:59.972Z,90.24
2017-11-07T02:14:26.120Z,89.67
2017-11-07T02:14:52.244Z,89.67
2017-11-07T02:15:18.361Z,90.05
2017-11-07T02:15:44.481Z,90.24
2017-11-07T02:16:10.605Z,90.24
2017-11-07T02:16:36.723Z,90.14
2017-11-07T02:17:02.847Z,90.62
2017-11-07T02:17:28.967Z,90.52
2017-11-07T02:17:55.080Z,90.71
2017-11-07T02:18:21.200Z,91
2017-11-07T02:18:47.328Z,90.81
2017-11-07T02:19:13.446Z,91.28
2017-11-07T02:19:39.564Z,90.9
2017-11-07T02:20:05.679Z,91.38
2017-11-07T02:20:31.793Z,91
2017-11-07T02:20:57.919Z,91.19
2017-11-07T02:21:24.034Z,91
2017-11-07T02:21:50.147Z,90.9
2017-11-07T02:22:16.270Z,91.14
2017-11-07T02:22:42.391Z,91.19
2017-11-07T02:23:08.514Z,91.09
2017-11-07T02:23:34.638Z,91.38
2017-11-07T02:24:00.752Z,91.09
2017-11-07T02:24:26.872Z,91
2017-11-07T02:24:52.989Z,91.47
2017-11-07T02:25:19.114Z,91
2017-11-07T02:25:45.229Z,91.19
2017-11-07T02:26:11.349Z,91
2017-11-07T02:26:37.465Z,91.09
2017-11-07T02:27:03.590Z,90.81
2017-11-07T02:27:29.704Z,91.09
2017-11-07T02:27:55.822Z,90.81
2017-11-07T02:28:21.948Z,90.52
2017-11-07T02:28:48.062Z,90.43
2017-11-07T02:29:14.184Z,90.52
2017-11-07T02:29:40.308Z,90.52
2017-11-07T02:30:06.425Z,90.62
2017-11-07T02:30:32.550Z,89.95
2017-11-07T02:30:58.667Z,90.05
2017-11-07T02:31:24.781Z,89.86
2017-11-07T02:31:50.904Z,89.76
2017-11-07T02:32:17.048Z,89.67
2017-11-07T02:32:43.162Z,89.48
2017-11-07T02:33:09.289Z,89.76
2017-11-07T02:33:35.403Z,89.58
2017-11-07T02:34:01.527Z,89.67
2017-11-07T02:34:27.643Z,89.39
2017-11-07T02:34:53.762Z,89.29
2017-11-07T02:35:19.885Z,89.29
2017-11-07T02:35:46.007Z,89.67
2017-11-07T02:36:12.122Z,90.33
2017-11-07T02:36:38.241Z,90.71
2017-11-07T02:37:04.365Z,91
2017-11-07T02:37:30.479Z,91
2017-11-07T02:37:56.601Z,90.9
2017-11-07T02:38:22.724Z,91.56
2017-11-07T02:38:48.836Z,91.28
2017-11-07T02:39:14.950Z,91
2017-11-07T02:39:41.074Z,91.33
2017-11-07T02:40:07.199Z,91.09
2017-11-07T02:40:33.310Z,91.28
2017-11-07T02:40:59.436Z,91.19
2017-11-07T02:41:25.548Z,91
2017-11-07T02:41:51.686Z,90.86
2017-11-07T02:42:17.790Z,91.19
2017-11-07T02:42:43.910Z,90.76
2017-11-07T02:43:10.034Z,91.09
2017-11-07T02:43:36.150Z,91
2017-11-07T02:44:02.265Z,91.28
2017-11-07T02:44:28.383Z,91
2017-11-07T02:44:54.508Z,90.67
2017-11-07T02:45:20.627Z,90.48
2017-11-07T02:45:46.746Z,90.57
2017-11-07T02:46:12.865Z,90.57
2017-11-07T02:46:38.990Z,90.95
2017-11-07T02:47:05.101Z,91
2017-11-07T02:47:31.226Z,91
2017-11-07T02:47:57.346Z,90.9
2017-11-07T02:48:23.468Z,90.48
2017-11-07T02:48:49.590Z,90.48
2017-11-07T02:49:15.711Z,90.86
2017-11-07T02:49:41.831Z,90.33
2017-11-07T02:50:07.964Z,90.57
2017-11-07T02:50:34.064Z,90.1
2017-11-07T02:51:00.188Z,90.19
2017-11-07T02:51:26.302Z,90.62
2017-11-07T02:51:52.443Z,90.48
2017-11-07T02:52:18.567Z,90.67
2017-11-07T02:52:44.682Z,90.05
2017-11-07T02:53:10.806Z,90.57
2017-11-07T02:53:36.923Z,90.48
2017-11-07T02:54:03.040Z,91.05
2017-11-07T02:54:29.163Z,90.86
2017-11-07T02:54:55.288Z,91.14
2017-11-07T02:55:21.401Z,91.24
2017-11-07T02:55:47.516Z,91.14
2017-11-07T02:56:13.640Z,91.24
2017-11-07T02:56:39.762Z,91.52
2017-11-07T02:57:05.882Z,91.61
2017-11-07T02:57:32.003Z,91.71
2017-11-07T02:57:58.118Z,91.42
2017-11-07T02:58:24.235Z,91.75
2017-11-07T02:58:50.356Z,91.8
2017-11-07T02:59:16.480Z,91.85
2017-11-07T02:59:42.620Z,91.42
2017-11-07T03:00:08.736Z,91.99
2017-11-07T03:00:34.862Z,91.33
2017-11-07T03:01:00.979Z,91.14
2017-11-07T03:01:27.103Z,91.05
2017-11-07T03:01:53.227Z,91.05
2017-11-07T03:02:19.345Z,91
2017-11-07T03:02:45.470Z,91
2017-11-07T03:03:11.582Z,91.05
2017-11-07T03:03:37.698Z,91
2017-11-07T03:04:03.826Z,91
2017-11-07T03:04:29.938Z,91
2017-11-07T03:04:56.057Z,90.71
2017-11-07T03:05:22.178Z,91.05
2017-11-07T03:05:48.296Z,90.9
2017-11-07T03:06:14.416Z,91
2017-11-07T03:06:40.531Z,91
2017-11-07T03:07:06.653Z,91.28
2017-11-07T03:07:32.777Z,90.81
2017-11-07T03:07:58.893Z,90.9
2017-11-07T03:08:25.020Z,90.9
2017-11-07T03:08:51.136Z,90.9
2017-11-07T03:09:17.251Z,91.19
2017-11-07T03:09:43.368Z,91.19
2017-11-07T03:10:09.493Z,91
2017-11-07T03:10:35.604Z,91
2017-11-07T03:11:01.729Z,91.28
2017-11-07T03:11:27.844Z,91.38
2017-11-07T03:11:53.969Z,90.9
2017-11-07T03:12:20.082Z,90.24
2017-11-07T03:12:46.208Z,90.52
2017-11-07T03:13:12.329Z,90.43
2017-11-07T03:13:38.445Z,90.24
2017-11-07T03:14:04.561Z,90.14
2017-11-07T03:14:30.683Z,89.86
2017-11-07T03:14:56.801Z,90.52
2017-11-07T03:15:22.925Z,90.43
2017-11-07T03:15:49.047Z,91
2017-11-07T03:16:15.164Z,90.71
2017-11-07T03:16:41.279Z,90.67
2017-11-07T03:17:07.400Z,90.95
2017-11-07T03:17:33.522Z,91.09
2017-11-07T03:17:59.648Z,91
2017-11-07T03:18:25.755Z,91.05
2017-11-07T03:18:51.879Z,90.86
2017-11-07T03:19:17.999Z,90.95
2017-11-07T03:19:44.113Z,91.24
2017-11-07T03:20:10.231Z,91.52
2017-11-07T03:20:36.375Z,91.99
2017-11-07T03:21:02.494Z,91.52
2017-11-07T03:21:28.618Z,91.61
2017-11-07T03:21:54.735Z,91.71
2017-11-07T03:22:20.858Z,91.71
2017-11-07T03:22:46.976Z,91.99
2017-11-07T03:23:13.092Z,91.24
2017-11-07T03:23:39.211Z,91.24
2017-11-07T03:24:05.326Z,90.95
2017-11-07T03:24:31.451Z,91.8
2017-11-07T03:24:57.570Z,91.61
2017-11-07T03:25:23.691Z,91.24
2017-11-07T03:25:49.809Z,91.05
2017-11-07T03:26:15.936Z,90.76
2017-11-07T03:26:42.051Z,91.14
2017-11-07T03:27:08.166Z,90.95
2017-11-07T03:27:34.291Z,90.95
2017-11-07T03:28:00.412Z,91.52
2017-11-07T03:28:26.538Z,91.61
2017-11-07T03:28:52.652Z,91.61
2017-11-07T03:29:18.769Z,91.52
2017-11-07T03:29:44.895Z,91.42
2017-11-07T03:30:11.015Z,91.61
2017-11-07T03:30:37.134Z,91.52
2017-11-07T03:31:03.254Z,91.8
2017-11-07T03:31:29.393Z,91.52
2017-11-07T03:31:55.509Z,91.52
2017-11-07T03:32:21.632Z,91.71
2017-11-07T03:32:47.748Z,91.71
2017-11-07T03:33:13.875Z,91.61
2017-11-07T03:33:39.994Z,92.28
2017-11-07T03:34:06.110Z,92.18
2017-11-07T03:34:32.233Z,91.99
2017-11-07T03:34:58.347Z,92.66
2017-11-07T03:35:24.471Z,92.57
2017-11-07T03:35:50.587Z,92.85
2017-11-07T03:36:16.712Z,93.32
2017-11-07T03:36:42.832Z,92.85
2017-11-07T03:37:08.948Z,93.13
2017-11-07T03:37:35.073Z,92.47
2017-11-07T03:38:01.192Z,93.04
2017-11-07T03:38:27.311Z,92.66
2017-11-07T03:38:53.428Z,93.13
2017-11-07T03:39:19.544Z,93.13
2017-11-07T03:39:45.670Z,93.32
2017-11-07T03:40:11.784Z,92.28
2017-11-07T03:40:37.904Z,92.47
2017-11-07T03:41:04.030Z,92.85
2017-11-07T03:41:30.149Z,92.47
2017-11-07T03:41:56.285Z,92.47
2017-11-07T03:42:22.382Z,91.99
2017-11-07T03:42:48.505Z,91.9
2017-11-07T03:43:14.621Z,91.52
2017-11-07T03:43:40.738Z,91.8
2017-11-07T03:44:06.881Z,91.33
2017-11-07T03:44:33.000Z,90.95
2017-11-07T03:44:59.125Z,90.95
2017-11-07T03:45:25.246Z,90.76
2017-11-07T03:45:51.362Z,90.67
2017-11-07T03:46:17.485Z,90.95
2017-11-07T03:46:43.598Z,90.95
2017-11-07T03:47:09.729Z,90.95
2017-11-07T03:47:35.848Z,90.38
2017-11-07T03:48:01.960Z,90.57
2017-11-07T03:48:28.082Z,90.19
2017-11-07T03:48:54.200Z,90.19
2017-11-07T03:49:20.316Z,90.19
2017-11-07T03:49:46.438Z,90.1
2017-11-07T03:50:12.555Z,89.62
2017-11-07T03:50:38.685Z,89.62
2017-11-07T03:51:04.799Z,89.62
2017-11-07T03:51:30.913Z,89.72
2017-11-07T03:51:57.033Z,89.72
2017-11-07T03:52:23.153Z,89.72
2017-11-07T03:52:49.271Z,89.53
2017-11-07T03:53:15.396Z,89.43
2017-11-07T03:53:41.519Z,89.43
2017-11-07T03:54:07.630Z,88.96
2017-11-07T03:54:33.757Z,89.43
2017-11-07T03:54:59.870Z,89.72
2017-11-07T03:55:25.992Z,90
2017-11-07T03:55:52.110Z,89.91
2017-11-07T03:56:18.221Z,90.29
2017-11-07T03:56:44.347Z,90.19
2017-11-07T03:57:10.456Z,90
2017-11-07T03:57:36.583Z,90.1
2017-11-07T03:58:02.703Z,90
2017-11-07T03:58:28.818Z,90
2017-11-07T03:58:54.937Z,89.62
2017-11-07T03:59:21.063Z,89.34
2017-11-07T03:59:47.183Z,89.53
2017-11-07T04:00:13.302Z,88.96
2017-11-07T04:00:39.420Z,89.15
2017-11-07T04:01:05.542Z,89.15
2017-11-07T04:01:31.656Z,89.34
2017-11-07T04:01:57.773Z,88.68
2017-11-07T04:02:23.890Z,89.15
2017-11-07T04:02:50.004Z,89.72
2017-11-07T04:03:16.134Z,89.81
2017-11-07T04:03:42.255Z,89.43
2017-11-07T04:04:08.368Z,89.43
2017-11-07T04:04:34.488Z,89.43
2017-11-07T04:05:00.612Z,89.43
2017-11-07T04:05:26.732Z,89.43
2017-11-07T04:05:52.851Z,89.15
2017-11-07T04:06:18.972Z,89.62
2017-11-07T04:06:45.087Z,89.43
2017-11-07T04:07:11.207Z,89.62
2017-11-07T04:07:37.330Z,89.62
2017-11-07T04:08:03.450Z,89.62
2017-11-07T04:08:29.565Z,89.43
2017-11-07T04:08:55.692Z,89.43
2017-11-07T04:09:21.807Z,90.38
2017-11-07T04:09:47.933Z,90.38
2017-11-07T04:10:14.042Z,90.19
2017-11-07T04:10:40.166Z,90.1
2017-11-07T04:11:06.280Z,90.1
2017-11-07T04:11:32.398Z,89.91
2017-11-07T04:11:58.541Z,90
2017-11-07T04:12:24.659Z,90.19
2017-11-07T04:12:50.782Z,89.62
2017-11-07T04:13:16.896Z,89.81
2017-11-07T04:13:43.020Z,89.53
2017-11-07T04:14:09.142Z,89.72
2017-11-07T04:14:35.256Z,90.19
2017-11-07T04:15:01.381Z,90.19
2017-11-07T04:15:27.521Z,90.67
2017-11-07T04:15:53.634Z,90.95
2017-11-07T04:16:19.764Z,90.95
2017-11-07T04:16:45.876Z,91.05
2017-11-07T04:17:12.001Z,91.05
2017-11-07T04:17:38.126Z,90.57
2017-11-07T04:18:04.238Z,90.57
2017-11-07T04:18:30.357Z,90.48
2017-11-07T04:18:56.477Z,90.57
2017-11-07T04:19:22.614Z,89.91
2017-11-07T04:19:48.712Z,90.38
2017-11-07T04:20:14.838Z,90.1
2017-11-07T04:20:40.956Z,89.53
2017-11-07T04:21:07.069Z,89.81
2017-11-07T04:21:33.183Z,89.62
2017-11-07T04:21:59.302Z,89.53
2017-11-07T04:22:25.427Z,89.06
2017-11-07T04:22:51.550Z,89.25
2017-11-07T04:23:17.669Z,89.34
2017-11-07T04:23:43.790Z,89.34
2017-11-07T04:24:09.905Z,89.25
2017-11-07T04:24:36.031Z,88.87
2017-11-07T04:25:02.145Z,88.29
2017-11-07T04:25:28.284Z,88.68
2017-11-07T04:25:54.404Z,88.58
2017-11-07T04:26:20.528Z,88.48
2017-11-07T04:26:46.646Z,88.1
2017-11-07T04:27:12.754Z,88.01
2017-11-07T04:27:38.874Z,88.01
2017-11-07T04:28:05.003Z,88.1
2017-11-07T04:28:31.121Z,88.29
2017-11-07T04:28:57.241Z,87.63
2017-11-07T04:29:23.355Z,87.63
2017-11-07T04:29:49.477Z,88.1
2017-11-07T04:30:15.603Z,88.01
2017-11-07T04:30:41.736Z,88.01
2017-11-07T04:31:07.841Z,88.39
2017-11-07T04:31:33.963Z,87.63
2017-11-07T04:32:00.076Z,88.2
2017-11-07T04:32:26.197Z,88.01
2017-11-07T04:32:52.319Z,88.29
2017-11-07T04:33:18.434Z,88.48
2017-11-07T04:33:44.555Z,88.58
2017-11-07T04:34:10.680Z,88.58
2017-11-07T04:34:36.792Z,88.58
2017-11-07T04:35:02.912Z,88.48
2017-11-07T04:35:29.034Z,88.39
2017-11-07T04:35:55.155Z,89.34
2017-11-07T04:36:21.293Z,89.06
2017-11-07T04:36:47.412Z,89.15
2017-11-07T04:37:13.532Z,89.06
2017-11-07T04:37:39.647Z,88.96
2017-11-07T04:38:05.772Z,89.34
2017-11-07T04:38:31.906Z,89.15
2017-11-07T04:38:58.030Z,89.34
2017-11-07T04:39:24.150Z,89.25
2017-11-07T04:39:50.269Z,88.87
2017-11-07T04:40:16.406Z,88.48
2017-11-07T04:40:42.527Z,88.68
2017-11-07T04:41:08.664Z,88.58
2017-11-07T04:41:34.781Z,88.87
2017-11-07T04:42:00.895Z,88.87
2017-11-07T04:42:27.017Z,88.68
2017-11-07T04:42:53.135Z,88.48
2017-11-07T04:43:19.260Z,88.68
2017-11-07T04:43:45.381Z,88.68
2017-11-07T04:44:11.497Z,88.77
2017-11-07T04:44:37.617Z,88.48
2017-11-07T04:45:03.744Z,88.58
2017-11-07T04:45:29.861Z,88.77
2017-11-07T04:45:55.980Z,88.68
2017-11-07T04:46:22.093Z,88.58
2017-11-07T04:46:48.216Z,88.77
2017-11-07T04:47:14.335Z,88.48
2017-11-07T04:47:40.449Z,88.58
2017-11-07T04:48:06.571Z,88.48
2017-11-07T04:48:32.694Z,88.68
2017-11-07T04:48:58.817Z,88.87
2017-11-07T04:49:24.936Z,88.68
2017-11-07T04:49:51.049Z,88.68
2017-11-07T04:50:17.173Z,88.68
2017-11-07T04:50:43.289Z,88.39
2017-11-07T04:51:09.418Z,88.68
2017-11-07T04:51:35.537Z,88.39
2017-11-07T04:52:01.653Z,88.39
2017-11-07T04:52:27.770Z,88.87
2017-11-07T04:52:53.893Z,88.58
2017-11-07T04:53:20.007Z,88.48
2017-11-07T04:53:46.127Z,88.2
2017-11-07T04:54:12.272Z,88.58
2017-11-07T04:54:38.386Z,88.48
2017-11-07T04:55:04.522Z,88.39
2017-11-07T04:55:30.627Z,88.39
2017-11-07T04:55:56.752Z,88.29
2017-11-07T04:56:22.868Z,88.48
2017-11-07T04:56:48.982Z,88.1
2017-11-07T04:57:15.105Z,87.82
2017-11-07T04:57:41.222Z,88.39
2017-11-07T04:58:07.345Z,88.68
2017-11-07T04:58:33.464Z,88.48
2017-11-07T04:58:59.608Z,88.68
2017-11-07T04:59:25.726Z,88.58
2017-11-07T04:59:51.840Z,88.48
2017-11-07T05:00:17.985Z,88.01
2017-11-07T05:00:44.099Z,87.82
2017-11-07T05:01:10.215Z,88.29
2017-11-07T05:01:36.335Z,88.01
2017-11-07T05:02:02.453Z,88.29
2017-11-07T05:02:28.578Z,88.48
2017-11-07T05:02:54.703Z,87.92
2017-11-07T05:03:20.812Z,88.2
2017-11-07T05:03:46.930Z,87.92
2017-11-07T05:04:13.050Z,88.01
2017-11-07T05:04:39.170Z,87.82
2017-11-07T05:05:05.298Z,88.2
2017-11-07T05:05:31.412Z,87.82
2017-11-07T05:05:57.541Z,88.2
2017-11-07T05:06:23.645Z,88.29
2017-11-07T05:06:49.762Z,88.48
2017-11-07T05:07:15.887Z,88.87
2017-11-07T05:07:42.009Z,88.87
2017-11-07T05:08:08.129Z,88.68
2017-11-07T05:08:34.248Z,88.87
2017-11-07T05:09:00.369Z,88.58
2017-11-07T05:09:26.503Z,88.1
2017-11-07T05:09:52.651Z,88.58
2017-11-07T05:10:18.766Z,88.68
2017-11-07T05:10:44.888Z,88.77
2017-11-07T05:11:11.007Z,88.58
2017-11-07T05:11:37.128Z,88.58
2017-11-07T05:12:03.241Z,88.68
2017-11-07T05:12:29.354Z,88.77
2017-11-07T05:12:55.480Z,88.29
2017-11-07T05:13:21.604Z,88.68
2017-11-07T05:13:47.724Z,88.1
2017-11-07T05:14:13.852Z,87.92
2017-11-07T05:14:39.960Z,88.01
2017-11-07T05:15:06.078Z,87.92
2017-11-07T05:15:32.197Z,88.01
2017-11-07T05:15:58.322Z,88.2
2017-11-07T05:16:24.437Z,88.48
2017-11-07T05:16:50.555Z,88.39
2017-11-07T05:17:16.676Z,88.1
2017-11-07T05:17:42.792Z,88.01
2017-11-07T05:18:08.912Z,88.01
2017-11-07T05:18:35.036Z,88.1
2017-11-07T05:19:01.151Z,87.92
2017-11-07T05:19:27.275Z,88.29
2017-11-07T05:19:53.391Z,87.92
2017-11-07T05:20:19.506Z,88.39
2017-11-07T05:20:45.635Z,88.58
2017-11-07T05:21:11.750Z,87.92
2017-11-07T05:21:37.872Z,87.82
2017-11-07T05:22:03.993Z,87.82
2017-11-07T05:22:30.112Z,88.1
2017-11-07T05:22:56.229Z,88.39
2017-11-07T05:23:22.346Z,88.01
2017-11-07T05:23:48.461Z,87.82
2017-11-07T05:24:14.586Z,88.2
2017-11-07T05:24:40.707Z,88.1
2017-11-07T05:25:06.845Z,88.01
2017-11-07T05:25:32.959Z,87.82
2017-11-07T05:25:59.077Z,88.44
2017-11-07T05:26:25.202Z,88.54
2017-11-07T05:26:51.315Z,88.73
2017-11-07T05:27:17.432Z,88.44
2017-11-07T05:27:43.581Z,89.29
2017-11-07T05:28:09.694Z,89.2
2017-11-07T05:28:35.811Z,89.11
2017-11-07T05:29:01.936Z,89.39
2017-11-07T05:29:28.082Z,88.92
2017-11-07T05:29:54.221Z,89.11
2017-11-07T05:30:20.338Z,88.92
2017-11-07T05:30:46.455Z,89.2
2017-11-07T05:31:12.581Z,89.11
2017-11-07T05:31:38.709Z,89.11
2017-11-07T05:32:04.823Z,88.54
2017-11-07T05:32:30.944Z,88.44
2017-11-07T05:32:57.053Z,89.29
2017-11-07T05:33:23.170Z,89.58
2017-11-07T05:33:49.295Z,89.86
2017-11-07T05:34:15.411Z,89.58
2017-11-07T05:34:41.528Z,89.96
2017-11-07T05:35:07.650Z,90.34
2017-11-07T05:35:33.760Z,90.01
2017-11-07T05:35:59.884Z,90.53
2017-11-07T05:36:26.005Z,90.53
2017-11-07T05:36:52.118Z,90.39
2017-11-07T05:37:18.239Z,90.67
2017-11-07T05:37:44.355Z,90.81
2017-11-07T05:38:10.480Z,90.91
2017-11-07T05:38:36.594Z,91.09
2017-11-07T05:39:02.716Z,91.38
2017-11-07T05:39:28.838Z,90.91